This is the latest recevied weather packets stored in our database for station/object N6OIM. If no packets are shown the sender has not sent any weather packets the latest 1 day(s).
| Time | Temp. | Humidity | Pressure | Rain* | Wind** | Luminosity | Snow |
|---|---|---|---|---|---|---|---|
| 1778098104 | 21.67° C | 58% | 1018.1 hPa | 0 mm | - | - | - |
| 1778097211 | 21.67° C | 60% | 1018.2 hPa | 0 mm | - | - | - |
| 1778096608 | 21.67° C | 58% | 1018.4 hPa | 0 mm | - | - | - |
| 1778094514 | 21.11° C | 61% | 1018.8 hPa | 0 mm | - | - | - |
| 1778093313 | 20° C | 66% | 1018.9 hPa | 0 mm | - | - | - |
| 1778092107 | 19.44° C | 66% | 1018.8 hPa | 0 mm | - | - | - |
| 1778089410 | 18.33° C | 72% | 1018.9 hPa | 0 mm | - | - | - |
| 1778088500 | 17.78° C | 72% | 1019 hPa | 0 mm | - | - | - |
| 1778087302 | 17.22° C | 74% | 1019 hPa | 0 mm | - | - | - |
| 1778083398 | 15.56° C | 77% | 1018.9 hPa | 0 mm | - | - | - |
| 1778082800 | 15.56° C | 78% | 1018.8 hPa | 0 mm | - | - | - |
| 1778081908 | 15.56° C | 79% | 1018.9 hPa | 0 mm | - | - | - |
| 1778081306 | 15.56° C | 79% | 1018.8 hPa | 0 mm | - | - | - |
| 1778080703 | 15° C | 80% | 1018.8 hPa | 0 mm | - | - | - |
| 1778078898 | 15° C | 81% | 1018.7 hPa | 0 mm | - | - | - |
| 1778078608 | 15° C | 81% | 1018.7 hPa | 0 mm | - | - | - |
| 1778078317 | 14.44° C | 81% | 1018.8 hPa | 0 mm | - | - | - |
| 1778078004 | 14.44° C | 81% | 1018.8 hPa | 0 mm | - | - | - |
| 1778076201 | 14.44° C | 81% | 1018.4 hPa | 0 mm | - | - | - |
| 1778075599 | 14.44° C | 81% | 1018.3 hPa | 0 mm | - | - | - |
| 1778074096 | 14.44° C | 80% | 1018.1 hPa | 0 mm | - | - | - |
| 1778073807 | 14.44° C | 80% | 1018 hPa | 0 mm | - | - | - |
| 1778073499 | 14.44° C | 80% | 1018.1 hPa | 0 mm | - | - | - |
| 1778072300 | 14.44° C | 80% | 1018.1 hPa | 0 mm | - | - | - |
| 1778071406 | 14.44° C | 80% | 1018.1 hPa | 0 mm | - | - | - |
* Rain latest hour (hover to see other rain measurements)
** Current wind speed in m/s (hover to see current wind gust speed)